sensor_id;sensor_type;location;lat;lon;timestamp;temperature;humidity
59961;DHT22;55902;-37.980;-63.602;2024-01-06T00:01:51;29.30;60.80
59961;DHT22;55902;-37.980;-63.602;2024-01-06T00:04:18;29.20;58.90
59961;DHT22;55902;-37.980;-63.602;2024-01-06T00:06:49;29.20;58.20
59961;DHT22;55902;-37.980;-63.602;2024-01-06T00:09:16;29.10;57.50
59961;DHT22;55902;-37.980;-63.602;2024-01-06T00:11:43;29.10;57.90
59961;DHT22;55902;-37.980;-63.602;2024-01-06T00:14:10;29.10;57.90
59961;DHT22;55902;-37.980;-63.602;2024-01-06T00:16:37;29.10;57.90
59961;DHT22;55902;-37.980;-63.602;2024-01-06T00:19:04;29.10;57.50
59961;DHT22;55902;-37.980;-63.602;2024-01-06T00:21:34;29.10;57.80
59961;DHT22;55902;-37.980;-63.602;2024-01-06T00:24:01;29.10;57.50
59961;DHT22;55902;-37.980;-63.602;2024-01-06T00:26:31;29.10;57.90
59961;DHT22;55902;-37.980;-63.602;2024-01-06T00:28:58;28.90;57.40
59961;DHT22;55902;-37.980;-63.602;2024-01-06T00:31:25;28.90;57.00
59961;DHT22;55902;-37.980;-63.602;2024-01-06T00:33:52;28.90;56.70
59961;DHT22;55902;-37.980;-63.602;2024-01-06T00:36:19;28.80;57.20
59961;DHT22;55902;-37.980;-63.602;2024-01-06T00:38:46;28.70;57.40
59961;DHT22;55902;-37.980;-63.602;2024-01-06T00:41:14;28.60;57.10
59961;DHT22;55902;-37.980;-63.602;2024-01-06T00:43:42;28.60;56.20
59961;DHT22;55902;-37.980;-63.602;2024-01-06T00:46:09;28.50;56.80
59961;DHT22;55902;-37.980;-63.602;2024-01-06T00:48:36;28.40;57.00
59961;DHT22;55902;-37.980;-63.602;2024-01-06T00:51:03;28.40;57.30
59961;DHT22;55902;-37.980;-63.602;2024-01-06T00:53:30;28.30;57.90
59961;DHT22;55902;-37.980;-63.602;2024-01-06T00:55:56;28.20;58.20
59961;DHT22;55902;-37.980;-63.602;2024-01-06T00:58:23;28.10;58.10
59961;DHT22;55902;-37.980;-63.602;2024-01-06T01:00:50;28.10;58.20
59961;DHT22;55902;-37.980;-63.602;2024-01-06T01:03:17;28.00;58.60
59961;DHT22;55902;-37.980;-63.602;2024-01-06T01:05:44;27.90;58.60
59961;DHT22;55902;-37.980;-63.602;2024-01-06T01:08:11;27.90;58.70
59961;DHT22;55902;-37.980;-63.602;2024-01-06T01:10:38;27.80;59.00
59961;DHT22;55902;-37.980;-63.602;2024-01-06T01:13:05;27.70;58.00
59961;DHT22;55902;-37.980;-63.602;2024-01-06T01:15:35;27.60;58.10
59961;DHT22;55902;-37.980;-63.602;2024-01-06T01:18:02;27.60;57.60
59961;DHT22;55902;-37.980;-63.602;2024-01-06T01:20:29;27.60;57.40
59961;DHT22;55902;-37.980;-63.602;2024-01-06T01:22:56;27.50;57.10
59961;DHT22;55902;-37.980;-63.602;2024-01-06T01:25:22;27.40;57.10
59961;DHT22;55902;-37.980;-63.602;2024-01-06T01:27:49;27.40;57.20
59961;DHT22;55902;-37.980;-63.602;2024-01-06T01:30:16;27.30;57.40
59961;DHT22;55902;-37.980;-63.602;2024-01-06T01:32:43;27.30;57.80
59961;DHT22;55902;-37.980;-63.602;2024-01-06T01:35:10;27.20;58.20
59961;DHT22;55902;-37.980;-63.602;2024-01-06T01:37:37;27.20;57.90
59961;DHT22;55902;-37.980;-63.602;2024-01-06T01:40:05;27.10;58.50
59961;DHT22;55902;-37.980;-63.602;2024-01-06T01:42:32;27.10;58.70
59961;DHT22;55902;-37.980;-63.602;2024-01-06T01:44:59;27.00;58.30
59961;DHT22;55902;-37.980;-63.602;2024-01-06T01:47:27;27.00;58.20
59961;DHT22;55902;-37.980;-63.602;2024-01-06T01:49:55;26.90;58.50
59961;DHT22;55902;-37.980;-63.602;2024-01-06T01:52:22;26.80;58.80
59961;DHT22;55902;-37.980;-63.602;2024-01-06T01:54:50;26.70;59.40
59961;DHT22;55902;-37.980;-63.602;2024-01-06T01:57:18;26.50;59.30
59961;DHT22;55902;-37.980;-63.602;2024-01-06T01:59:45;26.50;58.80
59961;DHT22;55902;-37.980;-63.602;2024-01-06T02:02:12;26.40;59.10
59961;DHT22;55902;-37.980;-63.602;2024-01-06T02:04:39;26.30;59.40
59961;DHT22;55902;-37.980;-63.602;2024-01-06T02:07:06;26.20;59.00
59961;DHT22;55902;-37.980;-63.602;2024-01-06T02:09:33;26.20;58.90
59961;DHT22;55902;-37.980;-63.602;2024-01-06T02:12:00;26.10;58.00
59961;DHT22;55902;-37.980;-63.602;2024-01-06T02:14:27;26.10;57.70
59961;DHT22;55902;-37.980;-63.602;2024-01-06T02:16:55;26.00;57.40
59961;DHT22;55902;-37.980;-63.602;2024-01-06T02:19:22;26.00;57.30
59961;DHT22;55902;-37.980;-63.602;2024-01-06T02:21:52;26.00;57.10
59961;DHT22;55902;-37.980;-63.602;2024-01-06T02:24:20;25.90;57.10
59961;DHT22;55902;-37.980;-63.602;2024-01-06T02:26:47;25.90;57.10
59961;DHT22;55902;-37.980;-63.602;2024-01-06T02:29:15;25.90;57.10
59961;DHT22;55902;-37.980;-63.602;2024-01-06T02:31:42;25.90;57.10
59961;DHT22;55902;-37.980;-63.602;2024-01-06T02:34:09;25.90;57.40
59961;DHT22;55902;-37.980;-63.602;2024-01-06T02:36:39;25.80;57.10
59961;DHT22;55902;-37.980;-63.602;2024-01-06T02:39:06;25.70;57.90
59961;DHT22;55902;-37.980;-63.602;2024-01-06T02:41:33;25.70;57.50
59961;DHT22;55902;-37.980;-63.602;2024-01-06T02:44:00;25.60;57.30
59961;DHT22;55902;-37.980;-63.602;2024-01-06T02:46:29;25.60;57.40
59961;DHT22;55902;-37.980;-63.602;2024-01-06T02:48:55;25.50;58.40
59961;DHT22;55902;-37.980;-63.602;2024-01-06T02:51:22;25.40;59.00
59961;DHT22;55902;-37.980;-63.602;2024-01-06T02:53:49;25.40;58.80
59961;DHT22;55902;-37.980;-63.602;2024-01-06T02:56:16;25.30;58.90
59961;DHT22;55902;-37.980;-63.602;2024-01-06T02:58:43;25.30;59.70
59961;DHT22;55902;-37.980;-63.602;2024-01-06T03:01:11;25.20;61.30
59961;DHT22;55902;-37.980;-63.602;2024-01-06T03:03:39;25.10;62.80
59961;DHT22;55902;-37.980;-63.602;2024-01-06T03:06:06;25.10;62.90
59961;DHT22;55902;-37.980;-63.602;2024-01-06T03:08:33;25.00;63.00
59961;DHT22;55902;-37.980;-63.602;2024-01-06T03:11:01;25.00;62.50
59961;DHT22;55902;-37.980;-63.602;2024-01-06T03:13:31;25.00;62.60
59961;DHT22;55902;-37.980;-63.602;2024-01-06T03:16:04;25.00;62.70
59961;DHT22;55902;-37.980;-63.602;2024-01-06T03:18:31;25.00;61.00
59961;DHT22;55902;-37.980;-63.602;2024-01-06T03:20:58;25.00;60.00
59961;DHT22;55902;-37.980;-63.602;2024-01-06T03:23:25;25.00;59.60
59961;DHT22;55902;-37.980;-63.602;2024-01-06T03:25:52;25.00;59.60
59961;DHT22;55902;-37.980;-63.602;2024-01-06T03:28:19;25.10;59.00
59961;DHT22;55902;-37.980;-63.602;2024-01-06T03:30:46;25.20;59.00
59961;DHT22;55902;-37.980;-63.602;2024-01-06T03:33:13;25.20;58.80
59961;DHT22;55902;-37.980;-63.602;2024-01-06T03:35:40;25.30;59.50
59961;DHT22;55902;-37.980;-63.602;2024-01-06T03:44:51;25.40;60.00
59961;DHT22;55902;-37.980;-63.602;2024-01-06T04:00:27;25.30;59.90
59961;DHT22;55902;-37.980;-63.602;2024-01-06T04:02:54;25.30;59.70
59961;DHT22;55902;-37.980;-63.602;2024-01-06T04:05:21;25.30;59.80
59961;DHT22;55902;-37.980;-63.602;2024-01-06T04:07:51;25.20;60.70
59961;DHT22;55902;-37.980;-63.602;2024-01-06T04:10:18;25.10;62.00
59961;DHT22;55902;-37.980;-63.602;2024-01-06T04:12:45;25.00;65.70
59961;DHT22;55902;-37.980;-63.602;2024-01-06T04:15:12;24.80;67.20
59961;DHT22;55902;-37.980;-63.602;2024-01-06T04:17:39;24.60;68.10
59961;DHT22;55902;-37.980;-63.602;2024-01-06T04:20:06;24.50;67.60
59961;DHT22;55902;-37.980;-63.602;2024-01-06T04:22:33;24.40;67.40
59961;DHT22;55902;-37.980;-63.602;2024-01-06T04:25:00;24.30;70.30
59961;DHT22;55902;-37.980;-63.602;2024-01-06T04:27:27;24.10;69.90
59961;DHT22;55902;-37.980;-63.602;2024-01-06T04:29:54;24.10;69.00
59961;DHT22;55902;-37.980;-63.602;2024-01-06T04:32:21;24.00;69.00
59961;DHT22;55902;-37.980;-63.602;2024-01-06T04:34:48;23.90;71.10
59961;DHT22;55902;-37.980;-63.602;2024-01-06T04:37:15;23.90;70.40
59961;DHT22;55902;-37.980;-63.602;2024-01-06T04:39:42;23.80;71.10
59961;DHT22;55902;-37.980;-63.602;2024-01-06T04:42:09;23.70;71.60
59961;DHT22;55902;-37.980;-63.602;2024-01-06T04:44:35;23.70;70.60
59961;DHT22;55902;-37.980;-63.602;2024-01-06T04:47:02;23.50;70.00
59961;DHT22;55902;-37.980;-63.602;2024-01-06T04:49:29;23.50;70.70
59961;DHT22;55902;-37.980;-63.602;2024-01-06T04:51:56;23.40;69.80
59961;DHT22;55902;-37.980;-63.602;2024-01-06T04:54:23;23.30;70.90
59961;DHT22;55902;-37.980;-63.602;2024-01-06T04:56:50;23.20;69.50
59961;DHT22;55902;-37.980;-63.602;2024-01-06T04:59:17;23.20;70.70
59961;DHT22;55902;-37.980;-63.602;2024-01-06T05:01:44;23.10;69.80
59961;DHT22;55902;-37.980;-63.602;2024-01-06T05:04:11;23.00;70.10
59961;DHT22;55902;-37.980;-63.602;2024-01-06T05:06:41;23.00;71.00
59961;DHT22;55902;-37.980;-63.602;2024-01-06T05:12:30;22.90;71.00
59961;DHT22;55902;-37.980;-63.602;2024-01-06T05:14:57;22.90;70.00
59961;DHT22;55902;-37.980;-63.602;2024-01-06T05:17:24;22.80;68.80
59961;DHT22;55902;-37.980;-63.602;2024-01-06T05:19:51;22.80;70.10
59961;DHT22;55902;-37.980;-63.602;2024-01-06T05:22:18;22.80;69.80
59961;DHT22;55902;-37.980;-63.602;2024-01-06T05:24:45;22.80;69.50
59961;DHT22;55902;-37.980;-63.602;2024-01-06T05:27:12;22.80;69.40
59961;DHT22;55902;-37.980;-63.602;2024-01-06T05:29:39;22.80;68.50
59961;DHT22;55902;-37.980;-63.602;2024-01-06T05:32:09;22.80;70.20
59961;DHT22;55902;-37.980;-63.602;2024-01-06T05:34:36;22.70;68.80
59961;DHT22;55902;-37.980;-63.602;2024-01-06T05:37:03;22.70;70.20
59961;DHT22;55902;-37.980;-63.602;2024-01-06T05:39:30;22.70;70.30
59961;DHT22;55902;-37.980;-63.602;2024-01-06T05:41:57;22.60;70.60
59961;DHT22;55902;-37.980;-63.602;2024-01-06T05:44:24;22.60;70.60
59961;DHT22;55902;-37.980;-63.602;2024-01-06T05:46:51;22.60;71.10
59961;DHT22;55902;-37.980;-63.602;2024-01-06T05:49:18;22.50;71.50
59961;DHT22;55902;-37.980;-63.602;2024-01-06T05:51:45;22.50;69.20
59961;DHT22;55902;-37.980;-63.602;2024-01-06T05:57:35;22.40;74.70
59961;DHT22;55902;-37.980;-63.602;2024-01-06T06:00:03;22.30;74.80
59961;DHT22;55902;-37.980;-63.602;2024-01-06T06:02:30;22.20;75.60
59961;DHT22;55902;-37.980;-63.602;2024-01-06T06:04:58;22.10;73.70
59961;DHT22;55902;-37.980;-63.602;2024-01-06T06:14:47;21.90;75.60
59961;DHT22;55902;-37.980;-63.602;2024-01-06T06:17:14;21.70;77.30
59961;DHT22;55902;-37.980;-63.602;2024-01-06T06:19:41;21.60;76.60
59961;DHT22;55902;-37.980;-63.602;2024-01-06T06:22:08;21.50;78.90
59961;DHT22;55902;-37.980;-63.602;2024-01-06T06:24:35;21.40;77.90
59961;DHT22;55902;-37.980;-63.602;2024-01-06T06:27:02;21.40;78.50
59961;DHT22;55902;-37.980;-63.602;2024-01-06T06:29:29;21.30;78.10
59961;DHT22;55902;-37.980;-63.602;2024-01-06T06:31:56;21.20;78.90
59961;DHT22;55902;-37.980;-63.602;2024-01-06T06:34:23;21.10;79.40
59961;DHT22;55902;-37.980;-63.602;2024-01-06T06:36:50;21.10;80.60
59961;DHT22;55902;-37.980;-63.602;2024-01-06T06:39:17;21.00;82.50
59961;DHT22;55902;-37.980;-63.602;2024-01-06T06:41:44;20.90;80.40
59961;DHT22;55902;-37.980;-63.602;2024-01-06T06:54:18;20.80;76.40
59961;DHT22;55902;-37.980;-63.602;2024-01-06T06:56:45;20.80;73.50
59961;DHT22;55902;-37.980;-63.602;2024-01-06T06:59:12;20.80;75.30
59961;DHT22;55902;-37.980;-63.602;2024-01-06T07:01:39;20.70;80.20
59961;DHT22;55902;-37.980;-63.602;2024-01-06T07:04:06;20.70;78.20
59961;DHT22;55902;-37.980;-63.602;2024-01-06T07:06:33;20.70;78.10
59961;DHT22;55902;-37.980;-63.602;2024-01-06T07:09:00;20.60;78.00
59961;DHT22;55902;-37.980;-63.602;2024-01-06T07:11:27;20.60;81.20
59961;DHT22;55902;-37.980;-63.602;2024-01-06T07:13:54;20.50;80.30
59961;DHT22;55902;-37.980;-63.602;2024-01-06T07:16:21;20.60;80.30
59961;DHT22;55902;-37.980;-63.602;2024-01-06T07:18:48;20.50;78.20
59961;DHT22;55902;-37.980;-63.602;2024-01-06T07:21:15;20.60;78.10
59961;DHT22;55902;-37.980;-63.602;2024-01-06T07:23:42;20.60;77.30
59961;DHT22;55902;-37.980;-63.602;2024-01-06T07:26:09;20.60;76.90
59961;DHT22;55902;-37.980;-63.602;2024-01-06T07:28:36;20.60;77.40
59961;DHT22;55902;-37.980;-63.602;2024-01-06T07:31:03;20.60;77.80
59961;DHT22;55902;-37.980;-63.602;2024-01-06T07:33:31;20.60;76.90
59961;DHT22;55902;-37.980;-63.602;2024-01-06T07:35:58;20.60;79.40
59961;DHT22;55902;-37.980;-63.602;2024-01-06T07:38:25;20.60;77.30
59961;DHT22;55902;-37.980;-63.602;2024-01-06T07:40:52;20.60;78.60
59961;DHT22;55902;-37.980;-63.602;2024-01-06T07:43:20;20.60;75.80
59961;DHT22;55902;-37.980;-63.602;2024-01-06T07:45:47;20.60;76.10
59961;DHT22;55902;-37.980;-63.602;2024-01-06T07:48:15;20.60;75.40
59961;DHT22;55902;-37.980;-63.602;2024-01-06T07:50:42;20.50;76.20
59961;DHT22;55902;-37.980;-63.602;2024-01-06T07:53:09;20.50;74.20
59961;DHT22;55902;-37.980;-63.602;2024-01-06T07:55:36;20.50;74.60
59961;DHT22;55902;-37.980;-63.602;2024-01-06T07:58:04;20.40;74.00
59961;DHT22;55902;-37.980;-63.602;2024-01-06T08:00:31;20.40;72.80
59961;DHT22;55902;-37.980;-63.602;2024-01-06T08:02:58;20.40;72.20
59961;DHT22;55902;-37.980;-63.602;2024-01-06T08:05:25;20.40;71.40
59961;DHT22;55902;-37.980;-63.602;2024-01-06T08:07:52;20.50;70.80
59961;DHT22;55902;-37.980;-63.602;2024-01-06T08:10:19;20.40;70.20
59961;DHT22;55902;-37.980;-63.602;2024-01-06T08:12:47;20.50;70.10
59961;DHT22;55902;-37.980;-63.602;2024-01-06T08:18:36;20.50;69.10
59961;DHT22;55902;-37.980;-63.602;2024-01-06T08:21:03;20.50;68.60
59961;DHT22;55902;-37.980;-63.602;2024-01-06T08:23:30;20.50;68.40
59961;DHT22;55902;-37.980;-63.602;2024-01-06T08:25:57;20.40;68.30
59961;DHT22;55902;-37.980;-63.602;2024-01-06T08:28:24;20.40;68.10
59961;DHT22;55902;-37.980;-63.602;2024-01-06T08:30:51;20.40;68.10
59961;DHT22;55902;-37.980;-63.602;2024-01-06T08:33:18;20.30;67.90
59961;DHT22;55902;-37.980;-63.602;2024-01-06T08:35:46;20.30;68.00
59961;DHT22;55902;-37.980;-63.602;2024-01-06T08:38:13;20.30;68.20
59961;DHT22;55902;-37.980;-63.602;2024-01-06T08:40:39;20.20;68.50
59961;DHT22;55902;-37.980;-63.602;2024-01-06T08:43:06;20.20;69.10
59961;DHT22;55902;-37.980;-63.602;2024-01-06T08:46:02;20.10;68.90
59961;DHT22;55902;-37.980;-63.602;2024-01-06T08:48:38;20.10;69.10
59961;DHT22;55902;-37.980;-63.602;2024-01-06T08:51:05;20.00;69.20
59961;DHT22;55902;-37.980;-63.602;2024-01-06T08:53:36;19.90;68.90
59961;DHT22;55902;-37.980;-63.602;2024-01-06T08:56:03;19.90;68.80
59961;DHT22;55902;-37.980;-63.602;2024-01-06T09:08:38;19.80;69.40
59961;DHT22;55902;-37.980;-63.602;2024-01-06T09:11:05;19.80;69.50
59961;DHT22;55902;-37.980;-63.602;2024-01-06T09:13:32;19.70;69.40
59961;DHT22;55902;-37.980;-63.602;2024-01-06T09:15:59;19.70;68.90
59961;DHT22;55902;-37.980;-63.602;2024-01-06T09:18:27;19.70;69.00
59961;DHT22;55902;-37.980;-63.602;2024-01-06T09:20:54;19.70;68.20
59961;DHT22;55902;-37.980;-63.602;2024-01-06T09:23:23;19.70;67.80
59961;DHT22;55902;-37.980;-63.602;2024-01-06T09:25:49;19.70;68.20
59961;DHT22;55902;-37.980;-63.602;2024-01-06T09:28:18;19.70;67.70
59961;DHT22;55902;-37.980;-63.602;2024-01-06T09:30:47;19.70;68.70
59961;DHT22;55902;-37.980;-63.602;2024-01-06T09:33:14;19.80;70.20
59961;DHT22;55902;-37.980;-63.602;2024-01-06T09:35:44;19.80;70.40
59961;DHT22;55902;-37.980;-63.602;2024-01-06T09:38:11;19.70;71.20
59961;DHT22;55902;-37.980;-63.602;2024-01-06T09:44:00;19.70;71.90
59961;DHT22;55902;-37.980;-63.602;2024-01-06T09:46:29;19.70;70.90
59961;DHT22;55902;-37.980;-63.602;2024-01-06T09:48:56;19.70;71.60
59961;DHT22;55902;-37.980;-63.602;2024-01-06T09:51:25;19.70;71.80
59961;DHT22;55902;-37.980;-63.602;2024-01-06T09:54:03;19.70;71.30
59961;DHT22;55902;-37.980;-63.602;2024-01-06T09:56:34;19.70;73.20
59961;DHT22;55902;-37.980;-63.602;2024-01-06T09:59:02;19.70;71.20
59961;DHT22;55902;-37.980;-63.602;2024-01-06T10:01:30;19.70;75.00
59961;DHT22;55902;-37.980;-63.602;2024-01-06T10:03:57;19.70;73.40
59961;DHT22;55902;-37.980;-63.602;2024-01-06T10:06:24;19.70;72.60
59961;DHT22;55902;-37.980;-63.602;2024-01-06T10:08:53;19.80;73.50
59961;DHT22;55902;-37.980;-63.602;2024-01-06T10:11:22;19.80;73.80
59961;DHT22;55902;-37.980;-63.602;2024-01-06T10:13:50;19.90;73.10
59961;DHT22;55902;-37.980;-63.602;2024-01-06T10:16:18;19.90;73.90
59961;DHT22;55902;-37.980;-63.602;2024-01-06T10:18:45;19.90;73.80
59961;DHT22;55902;-37.980;-63.602;2024-01-06T10:21:12;20.00;74.70
59961;DHT22;55902;-37.980;-63.602;2024-01-06T10:23:43;20.00;74.90
59961;DHT22;55902;-37.980;-63.602;2024-01-06T10:26:15;20.10;72.50
59961;DHT22;55902;-37.980;-63.602;2024-01-06T10:28:42;20.20;74.10
59961;DHT22;55902;-37.980;-63.602;2024-01-06T10:31:09;20.30;73.70
59961;DHT22;55902;-37.980;-63.602;2024-01-06T10:33:36;20.40;75.30
59961;DHT22;55902;-37.980;-63.602;2024-01-06T10:36:03;20.50;74.50
59961;DHT22;55902;-37.980;-63.602;2024-01-06T10:38:32;20.60;74.90
59961;DHT22;55902;-37.980;-63.602;2024-01-06T10:41:02;20.70;75.50
59961;DHT22;55902;-37.980;-63.602;2024-01-06T10:43:34;20.90;75.20
59961;DHT22;55902;-37.980;-63.602;2024-01-06T10:46:04;21.10;73.90
59961;DHT22;55902;-37.980;-63.602;2024-01-06T10:48:35;21.40;73.70
59961;DHT22;55902;-37.980;-63.602;2024-01-06T10:51:05;21.70;73.10
59961;DHT22;55902;-37.980;-63.602;2024-01-06T10:53:35;22.10;72.70
59961;DHT22;55902;-37.980;-63.602;2024-01-06T10:56:06;22.40;72.00
59961;DHT22;55902;-37.980;-63.602;2024-01-06T10:58:47;22.60;71.50
59961;DHT22;55902;-37.980;-63.602;2024-01-06T11:01:23;23.00;71.50
59961;DHT22;55902;-37.980;-63.602;2024-01-06T11:03:51;23.30;71.70
59961;DHT22;55902;-37.980;-63.602;2024-01-06T11:06:19;23.60;71.40
59961;DHT22;55902;-37.980;-63.602;2024-01-06T11:09:14;23.80;70.90
59961;DHT22;55902;-37.980;-63.602;2024-01-06T11:11:43;24.00;71.00
59961;DHT22;55902;-37.980;-63.602;2024-01-06T11:14:24;24.10;71.10
59961;DHT22;55902;-37.980;-63.602;2024-01-06T11:16:52;24.20;71.20
59961;DHT22;55902;-37.980;-63.602;2024-01-06T11:24:51;24.30;71.90
59961;DHT22;55902;-37.980;-63.602;2024-01-06T11:27:20;24.40;72.70
59961;DHT22;55902;-37.980;-63.602;2024-01-06T11:29:51;24.60;72.70
59961;DHT22;55902;-37.980;-63.602;2024-01-06T11:35:04;24.70;73.20
59961;DHT22;55902;-37.980;-63.602;2024-01-06T11:42:48;25.40;73.80
59961;DHT22;55902;-37.980;-63.602;2024-01-06T11:45:15;25.60;73.80
59961;DHT22;55902;-37.980;-63.602;2024-01-06T11:47:48;25.70;74.20
59961;DHT22;55902;-37.980;-63.602;2024-01-06T11:50:16;25.60;74.30
59961;DHT22;55902;-37.980;-63.602;2024-01-06T11:52:44;25.70;74.70
59961;DHT22;55902;-37.980;-63.602;2024-01-06T11:55:11;25.70;74.60
59961;DHT22;55902;-37.980;-63.602;2024-01-06T11:57:39;25.80;74.50
59961;DHT22;55902;-37.980;-63.602;2024-01-06T12:00:06;25.80;74.90
59961;DHT22;55902;-37.980;-63.602;2024-01-06T12:02:33;25.90;75.50
59961;DHT22;55902;-37.980;-63.602;2024-01-06T12:05:00;26.00;75.20
59961;DHT22;55902;-37.980;-63.602;2024-01-06T12:07:28;26.00;75.60
59961;DHT22;55902;-37.980;-63.602;2024-01-06T12:10:02;26.20;75.20
59961;DHT22;55902;-37.980;-63.602;2024-01-06T12:12:29;26.70;75.60
59961;DHT22;55902;-37.980;-63.602;2024-01-06T12:14:56;27.30;75.00
59961;DHT22;55902;-37.980;-63.602;2024-01-06T12:17:23;27.80;74.00
59961;DHT22;55902;-37.980;-63.602;2024-01-06T12:19:54;28.30;73.00
59961;DHT22;55902;-37.980;-63.602;2024-01-06T12:22:21;28.50;72.80
59961;DHT22;55902;-37.980;-63.602;2024-01-06T12:24:51;28.50;72.80
59961;DHT22;55902;-37.980;-63.602;2024-01-06T12:27:18;28.80;72.30
59961;DHT22;55902;-37.980;-63.602;2024-01-06T12:29:47;29.20;72.40
59961;DHT22;55902;-37.980;-63.602;2024-01-06T12:32:14;29.70;72.10
59961;DHT22;55902;-37.980;-63.602;2024-01-06T12:34:41;30.30;72.00
59961;DHT22;55902;-37.980;-63.602;2024-01-06T12:37:08;30.70;70.90
59961;DHT22;55902;-37.980;-63.602;2024-01-06T12:39:35;31.10;68.10
59961;DHT22;55902;-37.980;-63.602;2024-01-06T12:45:28;31.90;68.10
59961;DHT22;55902;-37.980;-63.602;2024-01-06T12:47:55;31.70;69.80
59961;DHT22;55902;-37.980;-63.602;2024-01-06T12:50:22;31.50;69.80
59961;DHT22;55902;-37.980;-63.602;2024-01-06T12:52:49;31.70;70.20
59961;DHT22;55902;-37.980;-63.602;2024-01-06T12:55:16;32.20;70.60
59961;DHT22;55902;-37.980;-63.602;2024-01-06T12:57:43;32.30;69.20
59961;DHT22;55902;-37.980;-63.602;2024-01-06T13:00:12;32.40;69.80
59961;DHT22;55902;-37.980;-63.602;2024-01-06T13:02:39;32.80;69.70
59961;DHT22;55902;-37.980;-63.602;2024-01-06T13:05:06;33.10;69.10
59961;DHT22;55902;-37.980;-63.602;2024-01-06T13:07:35;33.40;67.60
59961;DHT22;55902;-37.980;-63.602;2024-01-06T13:10:03;33.70;66.30
59961;DHT22;55902;-37.980;-63.602;2024-01-06T13:12:30;34.00;67.40
59961;DHT22;55902;-37.980;-63.602;2024-01-06T13:14:57;34.30;66.30
59961;DHT22;55902;-37.980;-63.602;2024-01-06T13:17:25;34.50;64.60
59961;DHT22;55902;-37.980;-63.602;2024-01-06T13:19:52;34.60;65.30
59961;DHT22;55902;-37.980;-63.602;2024-01-06T13:22:19;34.60;63.80
59961;DHT22;55902;-37.980;-63.602;2024-01-06T13:24:48;34.20;62.20
59961;DHT22;55902;-37.980;-63.602;2024-01-06T13:27:15;34.00;64.50
59961;DHT22;55902;-37.980;-63.602;2024-01-06T13:29:42;34.10;66.00
59961;DHT22;55902;-37.980;-63.602;2024-01-06T13:32:12;34.60;65.50
59961;DHT22;55902;-37.980;-63.602;2024-01-06T13:34:40;35.00;65.20
59961;DHT22;55902;-37.980;-63.602;2024-01-06T13:37:07;35.20;62.40
59961;DHT22;55902;-37.980;-63.602;2024-01-06T13:39:34;35.10;60.70
59961;DHT22;55902;-37.980;-63.602;2024-01-06T13:42:01;34.60;62.70
59961;DHT22;55902;-37.980;-63.602;2024-01-06T13:44:32;34.40;62.70
59961;DHT22;55902;-37.980;-63.602;2024-01-06T13:47:00;34.20;63.40
59961;DHT22;55902;-37.980;-63.602;2024-01-06T13:49:26;34.40;63.30
59961;DHT22;55902;-37.980;-63.602;2024-01-06T13:51:54;34.50;62.30
59961;DHT22;55902;-37.980;-63.602;2024-01-06T13:54:21;34.20;61.30
59961;DHT22;55902;-37.980;-63.602;2024-01-06T13:56:48;34.10;63.50
59961;DHT22;55902;-37.980;-63.602;2024-01-06T13:59:15;34.00;62.70
59961;DHT22;55902;-37.980;-63.602;2024-01-06T14:01:43;34.00;63.00
59961;DHT22;55902;-37.980;-63.602;2024-01-06T14:04:10;34.10;64.20
59961;DHT22;55902;-37.980;-63.602;2024-01-06T14:06:37;34.40;63.20
59961;DHT22;55902;-37.980;-63.602;2024-01-06T14:09:06;34.20;62.10
59961;DHT22;55902;-37.980;-63.602;2024-01-06T14:11:33;34.30;61.40
59961;DHT22;55902;-37.980;-63.602;2024-01-06T14:14:00;34.50;60.90
59961;DHT22;55902;-37.980;-63.602;2024-01-06T14:16:27;34.90;61.50
59961;DHT22;55902;-37.980;-63.602;2024-01-06T14:18:54;35.20;60.80
59961;DHT22;55902;-37.980;-63.602;2024-01-06T14:21:21;35.70;61.10
59961;DHT22;55902;-37.980;-63.602;2024-01-06T14:23:49;36.00;60.10
59961;DHT22;55902;-37.980;-63.602;2024-01-06T14:26:19;36.40;60.10
59961;DHT22;55902;-37.980;-63.602;2024-01-06T14:28:47;36.70;60.10
59961;DHT22;55902;-37.980;-63.602;2024-01-06T14:31:14;36.90;59.60
59961;DHT22;55902;-37.980;-63.602;2024-01-06T14:33:41;36.90;58.70
59961;DHT22;55902;-37.980;-63.602;2024-01-06T14:36:08;37.10;56.60
59961;DHT22;55902;-37.980;-63.602;2024-01-06T14:38:35;37.00;56.90
59961;DHT22;55902;-37.980;-63.602;2024-01-06T14:41:02;37.10;57.40
59961;DHT22;55902;-37.980;-63.602;2024-01-06T14:47:18;37.60;59.00
59961;DHT22;55902;-37.980;-63.602;2024-01-06T14:49:46;37.70;57.90
59961;DHT22;55902;-37.980;-63.602;2024-01-06T14:52:13;37.80;57.80
59961;DHT22;55902;-37.980;-63.602;2024-01-06T14:54:42;37.90;56.60
59961;DHT22;55902;-37.980;-63.602;2024-01-06T14:57:10;37.90;57.40
59961;DHT22;55902;-37.980;-63.602;2024-01-06T14:59:37;38.00;56.90
59961;DHT22;55902;-37.980;-63.602;2024-01-06T15:02:05;38.10;56.80
59961;DHT22;55902;-37.980;-63.602;2024-01-06T15:04:33;38.30;57.20
59961;DHT22;55902;-37.980;-63.602;2024-01-06T15:07:00;38.60;57.00
59961;DHT22;55902;-37.980;-63.602;2024-01-06T15:09:27;38.60;56.40
59961;DHT22;55902;-37.980;-63.602;2024-01-06T15:11:55;38.80;56.00
59961;DHT22;55902;-37.980;-63.602;2024-01-06T15:14:22;38.60;55.00
59961;DHT22;55902;-37.980;-63.602;2024-01-06T15:16:48;38.70;56.00
59961;DHT22;55902;-37.980;-63.602;2024-01-06T15:19:15;38.50;55.10
59961;DHT22;55902;-37.980;-63.602;2024-01-06T15:21:42;38.30;56.50
59961;DHT22;55902;-37.980;-63.602;2024-01-06T15:24:10;38.20;56.00
59961;DHT22;55902;-37.980;-63.602;2024-01-06T15:26:41;38.30;55.60
59961;DHT22;55902;-37.980;-63.602;2024-01-06T15:29:08;38.40;53.90
59961;DHT22;55902;-37.980;-63.602;2024-01-06T15:31:35;38.60;54.40
59961;DHT22;55902;-37.980;-63.602;2024-01-06T15:34:06;38.70;54.60
59961;DHT22;55902;-37.980;-63.602;2024-01-06T15:36:33;38.60;53.80
59961;DHT22;55902;-37.980;-63.602;2024-01-06T15:39:00;38.30;54.80
59961;DHT22;55902;-37.980;-63.602;2024-01-06T15:41:27;37.90;54.60
59961;DHT22;55902;-37.980;-63.602;2024-01-06T15:43:54;37.80;54.30
59961;DHT22;55902;-37.980;-63.602;2024-01-06T15:46:21;37.80;53.20
59961;DHT22;55902;-37.980;-63.602;2024-01-06T15:48:48;38.10;52.80
59961;DHT22;55902;-37.980;-63.602;2024-01-06T15:51:15;38.30;53.60
59961;DHT22;55902;-37.980;-63.602;2024-01-06T15:53:42;37.90;52.90
59961;DHT22;55902;-37.980;-63.602;2024-01-06T15:59:31;37.00;54.50
59961;DHT22;55902;-37.980;-63.602;2024-01-06T16:01:59;37.10;52.30
59961;DHT22;55902;-37.980;-63.602;2024-01-06T16:04:26;37.00;53.30
59961;DHT22;55902;-37.980;-63.602;2024-01-06T16:06:52;37.20;51.50
59961;DHT22;55902;-37.980;-63.602;2024-01-06T16:09:19;37.30;52.10
59961;DHT22;55902;-37.980;-63.602;2024-01-06T16:11:47;37.20;52.40
59961;DHT22;55902;-37.980;-63.602;2024-01-06T16:14:14;37.00;52.70
59961;DHT22;55902;-37.980;-63.602;2024-01-06T16:16:41;37.30;51.90